Time;durP1;ratioP1;P1;durP2;ratioP2;P2;SDS_P1;SDS_P2;PMS_P1;PMS_P2;Temp;Humidity;BMP_temperature;BMP_pressure;BME280_temperature;BME280_humidity;BME280_pressure;Samples;Min_cycle;Max_cycle;Signal;HPM_P1;HPM_P2
2024/01/01 00:02:10;;;;;;;;;;;;;;;10.20;88.16;99114.72;7284038;19;19979;-66
2024/01/01 00:04:37;;;;;;;;;;;;;;;10.21;88.26;99111.06;7294787;19;19952;-67
2024/01/01 00:07:04;;;;;;;;;;;;;;;10.21;88.47;99122.38;7282047;19;19954;-66
2024/01/01 00:09:30;;;;;;;;;;;;;;;10.24;88.51;99119.41;7292846;19;19950;-66
2024/01/01 00:11:57;;;;;;;;;;;;;;;10.20;87.69;99133.94;7289749;19;21374;-66
2024/01/01 00:14:24;;;;;;;;;;;;;;;10.22;87.86;99124.03;7287113;19;19994;-66
2024/01/01 00:16:51;;;;;;;;;;;;;;;10.23;88.58;99138.78;7282784;19;19918;-66
2024/01/01 00:19:18;;;;;;;;;;;;;;;10.25;89.31;99136.78;7288427;19;22098;-66
2024/01/01 00:21:45;;;;;;;;;;;;;;;10.26;88.74;99142.84;7291320;19;19967;-65
2024/01/01 00:24:11;;;;;;;;;;;;;;;10.32;89.15;99141.25;7284438;19;22382;-66
2024/01/01 00:26:38;;;;;;;;;;;;;;;10.35;89.24;99148.78;7293936;19;20500;-66
2024/01/01 00:29:06;;;;;;;;;;;;;;;10.36;88.14;99153.03;7287077;19;19987;-65
2024/01/01 00:31:33;;;;;;;;;;;;;;;10.35;88.19;99141.72;7293377;19;20782;-66
2024/01/01 00:34:00;;;;;;;;;;;;;;;10.39;88.69;99153.44;7294374;19;20356;-69
2024/01/01 00:36:27;;;;;;;;;;;;;;;10.36;87.80;99145.97;7298764;19;20608;-66
2024/01/01 00:38:54;;;;;;;;;;;;;;;10.36;87.77;99148.59;7290712;19;19998;-66
2024/01/01 00:41:21;;;;;;;;;;;;;;;10.36;88.63;99156.47;7289482;19;20359;-66
2024/01/01 00:43:48;;;;;;;;;;;;;;;10.33;88.14;99159.47;7295922;19;19915;-65
2024/01/01 00:46:15;;;;;;;;;;;;;;;10.32;88.39;99151.78;7301796;19;19959;-66
2024/01/01 00:48:42;;;;;;;;;;;;;;;10.28;87.61;99161.88;7292361;19;19998;-66
2024/01/01 00:51:10;;;;;;;;;;;;;;;10.24;87.39;99150.13;7289392;19;19938;-66
2024/01/01 00:53:37;;;;;;;;;;;;;;;10.25;88.29;99167.53;7301144;19;20943;-65
2024/01/01 00:56:04;;;;;;;;;;;;;;;10.23;88.20;99174.78;7282634;19;20416;-65
2024/01/01 00:58:31;;;;;;;;;;;;;;;10.22;88.35;99171.34;7288262;19;19927;-65
2024/01/01 01:00:58;;;;;;;;;;;;;;;10.25;88.00;99180.66;7296941;19;20297;-65
2024/01/01 01:03:25;;;;;;;;;;;;;;;10.25;86.86;99178.03;7290277;19;19923;-66
2024/01/01 01:05:55;;;;;;;;;;;;;;;10.23;86.95;99186.09;7288269;19;20908;-66
2024/01/01 01:08:26;;;;;;;;;;;;;;;10.21;86.05;99188.09;7301838;19;19919;-65
2024/01/01 01:10:52;;;;;;;;;;;;;;;10.20;86.83;99188.31;7292293;19;20148;-66
2024/01/01 01:13:24;;;;;;;;;;;;;;;10.19;86.98;99197.19;7285540;19;19926;-65
2024/01/01 01:15:53;;;;;;;;;;;;;;;10.17;87.61;99200.00;7283787;19;20384;-65
2024/01/01 01:18:20;;;;;;;;;;;;;;;10.19;88.75;99198.00;7292218;19;19926;-66
2024/01/01 01:20:48;;;;;;;;;;;;;;;10.15;86.45;99207.25;7296006;19;19923;-65
2024/01/01 01:23:15;;;;;;;;;;;;;;;10.10;86.21;99211.44;7303701;19;20410;-68
2024/01/01 01:25:41;;;;;;;;;;;;;;;10.05;86.16;99219.91;7307394;19;20894;-67
2024/01/01 01:28:08;;;;;;;;;;;;;;;10.07;87.64;99225.75;7290466;19;19934;-66
2024/01/01 01:30:35;;;;;;;;;;;;;;;10.08;87.27;99219.50;7289861;19;19926;-66
2024/01/01 01:33:02;;;;;;;;;;;;;;;10.11;88.75;99223.56;7292063;19;20022;-65
2024/01/01 01:35:29;;;;;;;;;;;;;;;10.06;87.25;99226.75;7298220;19;20448;-65
2024/01/01 01:37:56;;;;;;;;;;;;;;;10.03;87.12;99239.47;7300121;19;19926;-65
2024/01/01 01:40:22;;;;;;;;;;;;;;;10.02;87.01;99236.03;7293706;19;20334;-66
2024/01/01 01:42:50;;;;;;;;;;;;;;;10.02;87.67;99246.53;7295032;19;19933;-70
2024/01/01 01:45:17;;;;;;;;;;;;;;;10.04;87.29;99243.72;7287126;19;19923;-68
2024/01/01 01:47:44;;;;;;;;;;;;;;;10.06;87.51;99246.97;7282079;19;19919;-65
2024/01/01 01:50:11;;;;;;;;;;;;;;;10.07;87.19;99251.22;7291377;19;19943;-66
2024/01/01 01:52:39;;;;;;;;;;;;;;;10.07;87.12;99259.09;7301577;19;19938;-66
2024/01/01 01:55:06;;;;;;;;;;;;;;;10.10;88.48;99254.31;7294287;19;19923;-66
2024/01/01 01:57:34;;;;;;;;;;;;;;;10.08;86.36;99260.75;7290688;19;20030;-64
2024/01/01 02:00:01;;;;;;;;;;;;;;;10.05;86.61;99259.31;7297302;19;19923;-66
2024/01/01 02:02:37;;;;;;;;;;;;;;;10.02;86.53;99256.22;7309235;19;19986;-65
2024/01/01 02:05:04;;;;;;;;;;;;;;;10.04;86.41;99265.56;7306682;19;20568;-67
2024/01/01 02:07:31;;;;;;;;;;;;;;;10.03;86.69;99271.00;7297839;19;20493;-66
2024/01/01 02:09:59;;;;;;;;;;;;;;;10.03;86.75;99276.25;7304589;19;21317;-65
2024/01/01 02:12:26;;;;;;;;;;;;;;;10.01;85.32;99279.06;7302698;19;19919;-65
2024/01/01 02:14:52;;;;;;;;;;;;;;;10.06;86.19;99284.56;7302824;19;20747;-64
2024/01/01 02:17:19;;;;;;;;;;;;;;;10.04;85.62;99301.53;7298516;19;19926;-66
2024/01/01 02:19:46;;;;;;;;;;;;;;;10.07;85.82;99293.25;7307350;19;20001;-64
2024/01/01 02:22:13;;;;;;;;;;;;;;;10.15;87.12;99303.66;7303307;19;19919;-65
2024/01/01 02:24:40;;;;;;;;;;;;;;;10.17;85.55;99302.50;7296676;19;19918;-65
2024/01/01 02:27:07;;;;;;;;;;;;;;;10.16;84.77;99305.31;7301727;19;19925;-66
2024/01/01 02:29:34;;;;;;;;;;;;;;;10.16;85.08;99308.75;7296835;19;19918;-65
2024/01/01 02:32:01;;;;;;;;;;;;;;;10.18;86.19;99314.66;7300719;19;19922;-66
2024/01/01 02:34:29;;;;;;;;;;;;;;;10.22;86.40;99318.53;7298357;19;19914;-65
2024/01/01 02:36:56;;;;;;;;;;;;;;;10.24;86.40;99321.78;7303942;19;20227;-64
2024/01/01 02:39:23;;;;;;;;;;;;;;;10.26;86.08;99322.38;7283191;19;19919;-65
2024/01/01 02:41:50;;;;;;;;;;;;;;;10.27;85.70;99329.28;7299928;19;21212;-67
2024/01/01 02:44:18;;;;;;;;;;;;;;;10.24;85.46;99339.38;7291793;19;19946;-65
2024/01/01 02:46:46;;;;;;;;;;;;;;;10.26;85.59;99338.16;7294450;19;20008;-65
2024/01/01 02:49:13;;;;;;;;;;;;;;;10.26;86.56;99340.78;7287691;19;19929;-65
2024/01/01 02:51:43;;;;;;;;;;;;;;;10.30;85.95;99351.78;7297495;19;19923;-66
2024/01/01 02:54:10;;;;;;;;;;;;;;;10.32;86.43;99357.63;7308356;19;19927;-66
2024/01/01 02:56:37;;;;;;;;;;;;;;;10.32;86.52;99367.34;7288933;19;19923;-66
2024/01/01 02:59:04;;;;;;;;;;;;;;;10.31;85.87;99358.63;7289450;19;21160;-66
2024/01/01 03:01:31;;;;;;;;;;;;;;;10.34;86.14;99366.16;7307015;19;19919;-66
2024/01/01 03:03:58;;;;;;;;;;;;;;;10.34;84.83;99374.03;7286184;19;20931;-65
2024/01/01 03:06:25;;;;;;;;;;;;;;;10.35;83.61;99378.31;7293230;19;19919;-66
2024/01/01 03:08:53;;;;;;;;;;;;;;;10.37;84.74;99385.97;7297428;19;20296;-67
2024/01/01 03:11:27;;;;;;;;;;;;;;;10.39;84.97;99387.44;7291325;19;19922;-66
2024/01/01 03:13:54;;;;;;;;;;;;;;;10.43;84.27;99395.75;7292683;19;19929;-66
2024/01/01 03:16:21;;;;;;;;;;;;;;;10.43;84.05;99399.22;7307995;19;19934;-65
2024/01/01 03:18:51;;;;;;;;;;;;;;;10.47;83.38;99404.91;7314708;19;20325;-66
2024/01/01 03:21:18;;;;;;;;;;;;;;;10.45;82.78;99401.66;7316884;19;19933;-67
2024/01/01 03:23:45;;;;;;;;;;;;;;;10.43;82.67;99412.34;7294909;19;19922;-66
2024/01/01 03:26:12;;;;;;;;;;;;;;;10.46;82.82;99413.81;7291389;19;20285;-66
2024/01/01 03:28:39;;;;;;;;;;;;;;;10.45;82.59;99422.69;7293703;19;21761;-65
2024/01/01 03:31:06;;;;;;;;;;;;;;;10.47;82.66;99431.19;7286788;19;19922;-65
2024/01/01 03:33:33;;;;;;;;;;;;;;;10.49;82.08;99431.84;7296610;19;19922;-66
2024/01/01 03:36:00;;;;;;;;;;;;;;;10.50;81.41;99434.28;7295234;19;20268;-66
2024/01/01 03:38:27;;;;;;;;;;;;;;;10.51;81.01;99429.84;7281288;19;21153;-65
2024/01/01 03:40:54;;;;;;;;;;;;;;;10.53;82.11;99436.53;7301106;19;20244;-67
2024/01/01 03:43:21;;;;;;;;;;;;;;;10.55;80.88;99441.59;7294184;19;19977;-66
2024/01/01 03:45:48;;;;;;;;;;;;;;;10.55;80.37;99434.53;7291097;19;20391;-65
2024/01/01 03:48:15;;;;;;;;;;;;;;;10.56;80.28;99459.84;7281254;19;19919;-65
2024/01/01 03:50:42;;;;;;;;;;;;;;;10.57;80.31;99461.44;7303821;19;19914;-66
2024/01/01 03:53:09;;;;;;;;;;;;;;;10.57;79.43;99456.19;7293810;19;20481;-66
2024/01/01 03:55:36;;;;;;;;;;;;;;;10.54;79.13;99471.53;7297031;19;22057;-67
2024/01/01 03:58:03;;;;;;;;;;;;;;;10.55;79.03;99473.16;7282518;19;20477;-66
2024/01/01 04:00:30;;;;;;;;;;;;;;;10.53;78.89;99475.16;7289987;19;19950;-66
2024/01/01 04:02:57;;;;;;;;;;;;;;;10.52;79.54;99476.16;7290480;19;19923;-65
2024/01/01 04:05:24;;;;;;;;;;;;;;;10.48;79.21;99486.22;7288179;19;19925;-66
2024/01/01 04:07:51;;;;;;;;;;;;;;;10.51;79.51;99491.16;7294317;19;19999;-66
2024/01/01 04:10:18;;;;;;;;;;;;;;;10.52;80.11;99484.84;7289157;19;19919;-66
2024/01/01 04:12:49;;;;;;;;;;;;;;;10.52;79.13;99498.00;7297031;19;19915;-65
2024/01/01 04:15:20;;;;;;;;;;;;;;;10.55;80.03;99507.34;7295773;19;19919;-65
2024/01/01 04:17:47;;;;;;;;;;;;;;;10.56;79.74;99514.25;7289339;19;19915;-66
2024/01/01 04:20:14;;;;;;;;;;;;;;;10.57;78.97;99510.59;7294089;19;20455;-65
2024/01/01 04:22:41;;;;;;;;;;;;;;;10.56;78.84;99515.06;7280239;19;19951;-66
2024/01/01 04:25:09;;;;;;;;;;;;;;;10.54;78.72;99514.44;7295531;19;19949;-66
2024/01/01 04:27:36;;;;;;;;;;;;;;;10.54;78.86;99522.31;7302634;19;19927;-65
2024/01/01 04:30:04;;;;;;;;;;;;;;;10.57;80.53;99519.31;7291825;19;19923;-66
2024/01/01 04:32:31;;;;;;;;;;;;;;;10.58;79.90;99518.31;7283671;19;19930;-66
2024/01/01 04:34:58;;;;;;;;;;;;;;;10.56;79.03;99525.59;7293985;19;19915;-65
2024/01/01 04:37:24;;;;;;;;;;;;;;;10.55;78.61;99525.75;7294021;19;20030;-67
2024/01/01 04:39:51;;;;;;;;;;;;;;;10.52;78.30;99534.00;7289033;19;19998;-66
2024/01/01 04:42:18;;;;;;;;;;;;;;;10.51;78.75;99533.22;7305694;19;19919;-66
2024/01/01 04:44:45;;;;;;;;;;;;;;;10.49;78.17;99537.84;7281037;19;19926;-65
2024/01/01 04:47:12;;;;;;;;;;;;;;;10.47;78.67;99549.53;7295776;19;19937;-66
2024/01/01 04:49:40;;;;;;;;;;;;;;;10.42;77.85;99549.25;7297367;19;20548;-65
2024/01/01 04:52:07;;;;;;;;;;;;;;;10.40;79.17;99544.19;7303706;19;19919;-65
2024/01/01 04:54:34;;;;;;;;;;;;;;;10.38;78.00;99554.06;7302364;19;19915;-67
2024/01/01 04:57:01;;;;;;;;;;;;;;;10.38;77.72;99556.72;7301237;19;20198;-67
2024/01/01 04:59:27;;;;;;;;;;;;;;;10.36;77.55;99545.56;7286412;19;19922;-65
2024/01/01 05:01:54;;;;;;;;;;;;;;;10.32;77.36;99552.16;7300274;19;19915;-65
2024/01/01 05:04:21;;;;;;;;;;;;;;;10.32;77.74;99561.88;7292937;19;20344;-66
2024/01/01 05:06:48;;;;;;;;;;;;;;;10.32;78.42;99564.50;7284119;19;20026;-66
2024/01/01 05:09:15;;;;;;;;;;;;;;;10.33;78.69;99563.50;7305551;19;19970;-66
2024/01/01 05:11:42;;;;;;;;;;;;;;;10.30;78.43;99572.59;7291452;19;19927;-66
2024/01/01 05:14:09;;;;;;;;;;;;;;;10.29;78.30;99571.78;7287039;19;19930;-65
2024/01/01 05:16:36;;;;;;;;;;;;;;;10.30;78.87;99572.59;7290098;19;19922;-66
2024/01/01 05:19:03;;;;;;;;;;;;;;;10.33;78.83;99576.66;7296648;19;21454;-66
2024/01/01 05:21:30;;;;;;;;;;;;;;;10.34;79.12;99587.00;7296468;19;20315;-66
2024/01/01 05:23:57;;;;;;;;;;;;;;;10.36;80.02;99576.31;7303604;19;20289;-66
2024/01/01 05:26:24;;;;;;;;;;;;;;;10.37;79.40;99577.91;7301607;19;19943;-66
2024/01/01 05:28:51;;;;;;;;;;;;;;;10.35;79.33;99577.28;7291043;19;20363;-67
2024/01/01 05:31:19;;;;;;;;;;;;;;;10.32;78.31;99577.63;7295735;19;19934;-66
2024/01/01 05:33:46;;;;;;;;;;;;;;;10.27;79.02;99579.00;7282532;19;19919;-67
2024/01/01 05:36:13;;;;;;;;;;;;;;;10.26;79.08;99584.44;7304494;19;19918;-66
2024/01/01 05:38:41;;;;;;;;;;;;;;;10.23;79.41;99579.56;7287326;19;20391;-66
2024/01/01 05:41:11;;;;;;;;;;;;;;;10.21;80.08;99592.06;7306313;19;19919;-66
2024/01/01 05:43:38;;;;;;;;;;;;;;;10.15;79.07;99590.97;7295441;19;21129;-66
2024/01/01 05:46:06;;;;;;;;;;;;;;;10.15;80.39;99598.03;7291735;19;20519;-65
2024/01/01 05:48:32;;;;;;;;;;;;;;;10.10;79.63;99616.16;7296119;19;19935;-65
2024/01/01 05:51:07;;;;;;;;;;;;;;;10.07;79.36;99614.69;7289795;19;19944;-65
2024/01/01 05:53:35;;;;;;;;;;;;;;;10.03;79.71;99620.47;7297052;19;20005;-65
2024/01/01 05:56:06;;;;;;;;;;;;;;;10.02;79.97;99634.59;7305547;19;20011;-67
2024/01/01 05:58:32;;;;;;;;;;;;;;;9.98;79.87;99634.16;7286259;19;20364;-65
2024/01/01 06:00:59;;;;;;;;;;;;;;;9.96;80.08;99641.38;7297207;19;19923;-65
2024/01/01 06:03:26;;;;;;;;;;;;;;;9.95;80.62;99647.66;7301841;19;19990;-66
2024/01/01 06:05:54;;;;;;;;;;;;;;;9.95;80.87;99652.09;7298295;19;20211;-67
2024/01/01 06:08:21;;;;;;;;;;;;;;;9.91;79.89;99640.28;7303618;19;19926;-66
2024/01/01 06:10:48;;;;;;;;;;;;;;;9.90;80.95;99655.25;7288237;19;19929;-67
2024/01/01 06:13:14;;;;;;;;;;;;;;;9.87;81.02;99661.66;7294424;19;19947;-66
2024/01/01 06:15:41;;;;;;;;;;;;;;;9.86;81.05;99678.41;7297270;19;20194;-66
2024/01/01 06:18:10;;;;;;;;;;;;;;;9.86;81.07;99682.84;7299727;19;22607;-65
2024/01/01 06:20:37;;;;;;;;;;;;;;;9.84;81.70;99683.06;7289962;19;19926;-66
2024/01/01 06:23:07;;;;;;;;;;;;;;;9.81;81.08;99693.88;7292026;19;19922;-66
2024/01/01 06:25:34;;;;;;;;;;;;;;;9.80;82.02;99688.84;7284716;19;19921;-65
2024/01/01 06:28:01;;;;;;;;;;;;;;;9.77;82.43;99697.03;7306374;19;20450;-65
2024/01/01 06:30:28;;;;;;;;;;;;;;;9.76;81.69;99704.09;7308001;19;20268;-66
2024/01/01 06:32:55;;;;;;;;;;;;;;;9.73;81.53;99707.09;7312985;19;20343;-66
2024/01/01 06:35:30;;;;;;;;;;;;;;;9.72;81.77;99712.50;7301110;19;22448;-65
2024/01/01 06:37:57;;;;;;;;;;;;;;;9.69;82.77;99713.69;7298862;19;19915;-65
2024/01/01 06:40:24;;;;;;;;;;;;;;;9.69;82.39;99720.75;7300352;19;20610;-65
2024/01/01 06:42:51;;;;;;;;;;;;;;;9.69;82.76;99724.19;7287624;19;19919;-66
2024/01/01 06:45:18;;;;;;;;;;;;;;;9.66;82.59;99729.78;7304098;19;19925;-67
2024/01/01 06:47:45;;;;;;;;;;;;;;;9.62;82.31;99727.69;7299620;19;20613;-66
2024/01/01 06:50:12;;;;;;;;;;;;;;;9.63;83.11;99747.72;7303189;19;22062;-64
2024/01/01 06:52:39;;;;;;;;;;;;;;;9.61;83.01;99750.50;7300862;19;19922;-65
2024/01/01 06:55:06;;;;;;;;;;;;;;;9.63;84.98;99751.16;7284334;19;20632;-65
2024/01/01 06:57:33;;;;;;;;;;;;;;;9.61;84.17;99755.75;7288111;19;19959;-67
2024/01/01 07:00:00;;;;;;;;;;;;;;;9.60;83.65;99761.19;7301481;19;19949;-66
2024/01/01 07:02:27;;;;;;;;;;;;;;;9.59;85.33;99755.13;7295440;19;19942;-66
2024/01/01 07:04:54;;;;;;;;;;;;;;;9.59;85.05;99763.00;7289387;19;19926;-66
2024/01/01 07:07:21;;;;;;;;;;;;;;;9.56;84.46;99760.72;7295913;19;19919;-66
2024/01/01 07:09:47;;;;;;;;;;;;;;;9.51;84.04;99773.53;7290644;19;20335;-66
2024/01/01 07:12:23;;;;;;;;;;;;;;;9.48;83.73;99773.88;7278533;19;21019;-66
2024/01/01 07:14:50;;;;;;;;;;;;;;;9.50;84.67;99785.03;7299836;19;19926;-66
2024/01/01 07:17:17;;;;;;;;;;;;;;;9.48;84.46;99779.13;7274110;19;19986;-65
2024/01/01 07:19:44;;;;;;;;;;;;;;;9.48;84.74;99784.38;7285200;19;20242;-67
2024/01/01 07:22:14;;;;;;;;;;;;;;;9.46;85.04;99786.34;7291500;19;20323;-65
2024/01/01 07:24:41;;;;;;;;;;;;;;;9.45;85.11;99789.97;7299233;19;19934;-72
2024/01/01 07:27:08;;;;;;;;;;;;;;;9.44;85.65;99791.81;7294026;19;19926;-66
2024/01/01 07:29:35;;;;;;;;;;;;;;;9.45;85.50;99800.47;7306705;19;19939;-65
2024/01/01 07:32:04;;;;;;;;;;;;;;;9.43;85.25;99797.22;7294336;19;19941;-66
2024/01/01 07:34:31;;;;;;;;;;;;;;;9.41;84.92;99801.81;7287008;19;19944;-66
2024/01/01 07:36:58;;;;;;;;;;;;;;;9.43;85.20;99808.53;7272791;19;20001;-66
2024/01/01 07:39:25;;;;;;;;;;;;;;;9.45;86.23;99805.72;7292324;19;19923;-66
2024/01/01 07:41:52;;;;;;;;;;;;;;;9.42;85.11;99817.41;7309109;19;19918;-66
2024/01/01 07:44:20;;;;;;;;;;;;;;;9.44;85.67;99820.69;7289657;19;19952;-66
2024/01/01 07:46:48;;;;;;;;;;;;;;;9.45;84.94;99821.47;7306760;19;19926;-67
2024/01/01 07:49:16;;;;;;;;;;;;;;;9.40;84.38;99832.47;7299562;19;19919;-66
2024/01/01 07:51:43;;;;;;;;;;;;;;;9.38;84.57;99834.47;7284679;19;20962;-68
2024/01/01 07:54:10;;;;;;;;;;;;;;;9.36;84.64;99827.75;7282073;19;19923;-67
2024/01/01 07:56:43;;;;;;;;;;;;;;;9.35;85.32;99837.44;7286245;19;19919;-67
2024/01/01 07:59:11;;;;;;;;;;;;;;;9.35;85.54;99839.22;7290749;19;19914;-67
2024/01/01 08:01:40;;;;;;;;;;;;;;;9.36;86.26;99849.56;7297012;19;20589;-67
2024/01/01 08:04:07;;;;;;;;;;;;;;;9.36;86.53;99848.75;7295900;19;19951;-67
2024/01/01 08:06:34;;;;;;;;;;;;;;;9.35;86.40;99853.19;7285048;19;20786;-67
2024/01/01 08:09:02;;;;;;;;;;;;;;;9.36;86.98;99865.31;7290942;19;20492;-67
2024/01/01 08:11:29;;;;;;;;;;;;;;;9.36;86.34;99867.94;7293834;19;20340;-68
2024/01/01 08:13:56;;;;;;;;;;;;;;;9.35;86.22;99875.97;7288586;19;21360;-67
2024/01/01 08:16:23;;;;;;;;;;;;;;;9.34;86.68;99884.88;7293272;19;20466;-67
2024/01/01 08:18:50;;;;;;;;;;;;;;;9.31;86.13;99890.44;7288999;19;19959;-66
2024/01/01 08:21:17;;;;;;;;;;;;;;;9.30;85.75;99901.91;7291408;19;20332;-66
2024/01/01 08:23:44;;;;;;;;;;;;;;;9.28;86.37;99896.84;7299845;19;20253;-67
2024/01/01 08:26:11;;;;;;;;;;;;;;;9.27;85.66;99897.84;7305072;19;20556;-69
2024/01/01 08:28:38;;;;;;;;;;;;;;;9.28;86.13;99903.91;7302108;19;20035;-67
2024/01/01 08:31:05;;;;;;;;;;;;;;;9.32;87.80;99906.03;7316636;19;19964;-66
2024/01/01 08:33:32;;;;;;;;;;;;;;;9.34;86.59;99914.56;7318987;19;20351;-67
2024/01/01 08:35:59;;;;;;;;;;;;;;;9.35;86.68;99918.81;7316204;19;20818;-66
2024/01/01 08:38:26;;;;;;;;;;;;;;;9.37;86.74;99916.84;7298210;19;20014;-66
2024/01/01 08:40:57;;;;;;;;;;;;;;;9.37;85.75;99919.47;7305357;19;19915;-67
2024/01/01 08:43:26;;;;;;;;;;;;;;;9.37;86.20;99918.66;7305914;19;19927;-66
2024/01/01 08:45:54;;;;;;;;;;;;;;;9.40;85.96;99928.78;7308797;19;21136;-66
2024/01/01 08:48:21;;;;;;;;;;;;;;;9.41;86.26;99925.19;7310836;19;19918;-67
2024/01/01 08:50:51;;;;;;;;;;;;;;;9.42;85.94;99924.22;7315286;19;19934;-67
2024/01/01 08:53:19;;;;;;;;;;;;;;;9.36;84.45;99928.31;7311220;19;19934;-67
2024/01/01 08:55:47;;;;;;;;;;;;;;;9.32;84.13;99928.81;7309056;19;20965;-67
2024/01/01 08:58:14;;;;;;;;;;;;;;;9.31;84.38;99928.00;7307690;19;20609;-67
2024/01/01 09:00:44;;;;;;;;;;;;;;;9.29;84.50;99924.75;7297160;19;19923;-67
2024/01/01 09:03:17;;;;;;;;;;;;;;;9.29;84.77;99929.16;7311046;19;20014;-67
2024/01/01 09:05:46;;;;;;;;;;;;;;;9.28;84.99;99930.16;7301537;19;20106;-67
2024/01/01 09:08:13;;;;;;;;;;;;;;;9.32;84.99;99934.06;7299743;19;20363;-67
2024/01/01 09:10:45;;;;;;;;;;;;;;;9.35;85.04;99938.97;7311997;19;19919;-67
2024/01/01 09:13:16;;;;;;;;;;;;;;;9.36;84.84;99936.19;7311168;19;21159;-67
2024/01/01 09:15:43;;;;;;;;;;;;;;;9.38;84.09;99950.00;7307540;19;20363;-67
2024/01/01 09:18:15;;;;;;;;;;;;;;;9.42;85.02;99953.09;7295347;19;20216;-68
2024/01/01 09:20:44;;;;;;;;;;;;;;;9.45;83.64;99955.38;7307465;19;20973;-68
2024/01/01 09:23:17;;;;;;;;;;;;;;;9.47;83.47;99952.59;7295390;19;19994;-67
2024/01/01 09:25:46;;;;;;;;;;;;;;;9.52;83.94;99963.41;7306734;19;20167;-66
2024/01/01 09:28:13;;;;;;;;;;;;;;;9.55;83.70;99950.75;7304616;19;20822;-68
2024/01/01 09:30:44;;;;;;;;;;;;;;;9.57;83.58;99955.84;7306080;19;20449;-66
2024/01/01 09:33:27;;;;;;;;;;;;;;;9.60;83.47;99956.31;7305416;19;20328;-67
2024/01/01 09:35:55;;;;;;;;;;;;;;;9.63;83.41;99963.88;7304034;19;21295;-66
2024/01/01 09:38:22;;;;;;;;;;;;;;;9.64;82.83;99967.31;7299111;19;20025;-66
2024/01/01 09:40:54;;;;;;;;;;;;;;;9.66;83.07;99967.97;7300330;19;19954;-66
2024/01/01 09:43:24;;;;;;;;;;;;;;;9.61;82.16;99976.34;7293937;19;21150;-66
2024/01/01 09:45:55;;;;;;;;;;;;;;;9.60;82.27;99977.31;7311639;19;19919;-66
2024/01/01 09:48:23;;;;;;;;;;;;;;;9.62;82.82;99974.53;7305636;19;19918;-66
2024/01/01 09:50:52;;;;;;;;;;;;;;;9.62;82.25;99974.53;7284668;19;19919;-66
2024/01/01 09:53:24;;;;;;;;;;;;;;;9.65;82.14;99987.34;7299433;19;19923;-67
2024/01/01 09:55:51;;;;;;;;;;;;;;;9.63;82.10;99990.13;7292391;19;19922;-67
2024/01/01 09:58:19;;;;;;;;;;;;;;;9.65;81.83;99988.16;7299551;19;19915;-66
2024/01/01 10:00:50;;;;;;;;;;;;;;;9.69;83.31;99986.84;7303216;19;21082;-67
2024/01/01 10:03:23;;;;;;;;;;;;;;;9.73;82.15;99988.16;7305978;19;20037;-67
2024/01/01 10:05:52;;;;;;;;;;;;;;;9.74;82.17;100005.56;7288473;19;20015;-66
2024/01/01 10:08:20;;;;;;;;;;;;;;;9.76;82.17;100010.63;7303074;19;19929;-66
2024/01/01 10:10:49;;;;;;;;;;;;;;;9.77;82.22;99999.94;7297249;19;19922;-67
2024/01/01 10:13:18;;;;;;;;;;;;;;;9.78;82.12;100003.41;7304666;19;19995;-66
2024/01/01 10:15:54;;;;;;;;;;;;;;;9.77;81.42;100005.22;7295186;19;19917;-68
2024/01/01 10:18:21;;;;;;;;;;;;;;;9.78;81.90;100012.09;7290727;19;20605;-68
2024/01/01 10:20:51;;;;;;;;;;;;;;;9.84;82.42;100008.81;7287578;19;19925;-66
2024/01/01 10:23:20;;;;;;;;;;;;;;;9.85;81.13;100012.25;7284810;19;19971;-67
2024/01/01 10:25:51;;;;;;;;;;;;;;;9.85;80.89;100017.50;7308962;19;19923;-68
2024/01/01 10:28:24;;;;;;;;;;;;;;;9.86;81.28;100006.81;7296321;19;20177;-67
2024/01/01 10:30:53;;;;;;;;;;;;;;;9.86;81.29;100014.69;7299834;19;19929;-66
2024/01/01 10:33:23;;;;;;;;;;;;;;;9.90;81.27;100012.56;7292351;19;19925;-66
2024/01/01 10:35:52;;;;;;;;;;;;;;;9.94;82.57;100016.50;7297230;19;19944;-66
2024/01/01 10:38:23;;;;;;;;;;;;;;;9.99;81.69;100016.81;7297385;19;20248;-68
2024/01/01 10:40:51;;;;;;;;;;;;;;;10.03;80.43;100019.91;7303462;19;20379;-67
2024/01/01 10:43:22;;;;;;;;;;;;;;;10.03;80.36;100028.63;7292799;19;19926;-68
2024/01/01 10:45:50;;;;;;;;;;;;;;;10.05;80.06;100025.84;7304434;19;19922;-67
2024/01/01 10:48:21;;;;;;;;;;;;;;;10.06;80.16;100028.28;7306908;19;20131;-67
2024/01/01 10:51:04;;;;;;;;;;;;;;;10.10;80.43;100024.34;7286737;19;19978;-67
2024/01/01 10:53:53;;;;;;;;;;;;;;;10.19;80.30;100030.41;7281287;19;20494;-66
2024/01/01 10:56:31;;;;;;;;;;;;;;;10.25;80.22;100030.56;7294812;19;20389;-67
2024/01/01 10:59:08;;;;;;;;;;;;;;;10.32;78.60;100025.41;7294214;19;22286;-67
2024/01/01 11:01:37;;;;;;;;;;;;;;;10.38;79.29;100039.69;7299381;19;19930;-67
2024/01/01 11:04:05;;;;;;;;;;;;;;;10.43;79.28;100032.94;7303656;19;19911;-67
2024/01/01 11:06:33;;;;;;;;;;;;;;;10.43;78.46;100025.03;7298498;19;20149;-67
2024/01/01 11:09:18;;;;;;;;;;;;;;;10.48;79.16;100027.97;7298585;19;19923;-67
2024/01/01 11:11:54;;;;;;;;;;;;;;;10.54;78.61;100029.91;7295584;19;19915;-67
2024/01/01 11:14:25;;;;;;;;;;;;;;;10.60;78.91;100029.22;7311624;19;20497;-67
2024/01/01 11:16:54;;;;;;;;;;;;;;;10.60;78.05;100029.22;7291444;19;19915;-68
2024/01/01 11:19:35;;;;;;;;;;;;;;;10.62;77.93;100037.75;7286441;19;20275;-66
2024/01/01 11:22:25;;;;;;;;;;;;;;;10.60;77.07;100039.75;7303882;19;20473;-67
2024/01/01 11:24:54;;;;;;;;;;;;;;;10.59;76.73;100040.75;7312195;19;19931;-67
2024/01/01 11:27:27;;;;;;;;;;;;;;;10.59;77.96;100037.28;7298451;19;20875;-67
2024/01/01 11:30:04;;;;;;;;;;;;;;;10.60;78.21;100036.31;7288964;19;21105;-67
2024/01/01 11:32:35;;;;;;;;;;;;;;;10.59;78.04;100029.41;7305593;19;19942;-68
2024/01/01 11:35:16;;;;;;;;;;;;;;;10.60;77.91;100031.03;7293283;19;19934;-65
2024/01/01 11:37:45;;;;;;;;;;;;;;;10.61;77.17;100027.44;7293905;19;19926;-66
2024/01/01 11:40:20;;;;;;;;;;;;;;;10.67;79.43;100030.16;7301337;19;20068;-66
2024/01/01 11:42:52;;;;;;;;;;;;;;;10.68;78.52;100025.72;7298141;19;19929;-68
2024/01/01 11:45:24;;;;;;;;;;;;;;;10.75;79.00;100029.31;7301019;19;20813;-66
2024/01/01 11:48:03;;;;;;;;;;;;;;;10.85;79.87;100031.72;7294726;19;20109;-67
2024/01/01 11:50:31;;;;;;;;;;;;;;;10.94;78.60;100031.47;7301058;19;19914;-67
2024/01/01 11:53:00;;;;;;;;;;;;;;;10.97;76.26;100032.97;7283474;19;20146;-68
2024/01/01 11:55:27;;;;;;;;;;;;;;;11.03;77.20;100029.59;7285969;19;20538;-67
2024/01/01 11:57:55;;;;;;;;;;;;;;;11.01;76.04;100034.25;7291628;19;19919;-66
2024/01/01 12:00:24;;;;;;;;;;;;;;;10.98;75.68;100038.03;7297703;19;20368;-67
2024/01/01 12:02:52;;;;;;;;;;;;;;;10.95;75.96;100043.66;7302366;19;20717;-67
2024/01/01 12:05:25;;;;;;;;;;;;;;;10.96;76.06;100050.56;7303032;19;20335;-66
2024/01/01 12:07:54;;;;;;;;;;;;;;;10.97;76.77;100054.03;7286564;19;21314;-67
2024/01/01 12:10:24;;;;;;;;;;;;;;;10.95;76.32;100058.63;7286446;19;19935;-67
2024/01/01 12:13:01;;;;;;;;;;;;;;;10.92;76.45;100057.16;7291604;19;19925;-66
2024/01/01 12:15:30;;;;;;;;;;;;;;;10.91;77.07;100044.19;7305129;19;19930;-67
2024/01/01 12:18:04;;;;;;;;;;;;;;;10.90;76.70;100038.09;7285920;19;19915;-66
2024/01/01 12:20:43;;;;;;;;;;;;;;;10.88;76.98;100034.81;7300043;19;20928;-66
2024/01/01 12:23:17;;;;;;;;;;;;;;;10.85;76.83;100037.81;7295099;19;20006;-67
2024/01/01 12:25:45;;;;;;;;;;;;;;;10.82;76.19;100035.50;7294127;19;20000;-67
2024/01/01 12:28:16;;;;;;;;;;;;;;;10.83;76.74;100031.06;7288932;19;19922;-68
2024/01/01 12:30:46;;;;;;;;;;;;;;;10.81;76.63;100025.16;7298466;19;20321;-66
2024/01/01 12:33:17;;;;;;;;;;;;;;;10.77;76.86;100029.94;7292700;19;20611;-67
2024/01/01 12:35:47;;;;;;;;;;;;;;;10.78;77.30;100030.75;7289186;19;19918;-67
2024/01/01 12:38:14;;;;;;;;;;;;;;;10.81;77.95;100035.69;7295351;19;21699;-66
2024/01/01 12:40:43;;;;;;;;;;;;;;;10.79;77.86;100020.06;7297867;19;19927;-67
2024/01/01 12:43:21;;;;;;;;;;;;;;;10.76;77.25;100004.66;7297925;19;19918;-67
2024/01/01 12:45:49;;;;;;;;;;;;;;;10.77;76.83;100001.00;7295988;19;20653;-67
2024/01/01 12:48:22;;;;;;;;;;;;;;;10.78;76.78;99999.19;7285946;19;20479;-67
2024/01/01 12:50:51;;;;;;;;;;;;;;;10.78;77.12;99991.28;7292579;19;20415;-66
2024/01/01 12:53:20;;;;;;;;;;;;;;;10.77;77.30;99987.06;7289460;19;19986;-66
2024/01/01 12:55:47;;;;;;;;;;;;;;;10.83;79.36;99979.25;7281867;19;19923;-67